New York, New York
Traffic Map
Current Weather Conditions
New York, New York
Overcast Haze
Overcast

Feels Like: 2°
Wind Chill: Ceiling: 1100
Heat Index: Visibility: 4mi
Dew Point: Wind: 7mph
Humidity: 89% Direction: 80° (E)
Pressure: 30.11in Gusts: 0mph
Raw Report DataKNYC 172151Z AUTO 08006KT 4SM BR OVC011 04/03 A3011 RMK AO2 CIG 008V012 SLP188 T00440028
Traffic Incident Summary
Active as of:
Severity:
Category:
InformationThere was an issue retrieving the traffic information for this location. Please try a different location or try again shortly.
Advertisements
Track Severe Weather on mobile